Time;durP1;ratioP1;P1;durP2;ratioP2;P2;SDS_P1;SDS_P2;PMS_P1;PMS_P2;Temp;Humidity;BMP_temperature;BMP_pressure;BME280_temperature;BME280_humidity;BME280_pressure;Samples;Min_cycle;Max_cycle;Signal;HPM_P1;HPM_P2
2023/04/18 00:00:58;;;;;;;14.80;12.20;;;10.00;97.50;;;;;;6242267;23;20001;-72
2023/04/18 00:03:24;;;;;;;15.32;12.70;;;10.00;97.30;;;;;;6241629;23;20015;-72
2023/04/18 00:05:49;;;;;;;14.27;10.93;;;9.90;96.90;;;;;;6242327;22;20123;-72
2023/04/18 00:08:15;;;;;;;14.07;12.45;;;9.90;96.30;;;;;;6241774;23;20422;-72
2023/04/18 00:10:41;;;;;;;12.97;11.50;;;9.80;95.80;;;;;;6241533;23;20346;-71
2023/04/18 00:13:06;;;;;;;16.88;12.63;;;9.80;95.60;;;;;;6240694;23;20008;-72
2023/04/18 00:15:34;;;;;;;15.32;11.27;;;9.70;95.50;;;;;;6241650;23;20008;-72
2023/04/18 00:18:02;;;;;;;12.32;10.30;;;9.70;95.40;;;;;;6240789;23;20008;-72
2023/04/18 00:20:29;;;;;;;14.20;10.87;;;9.60;95.30;;;;;;6241800;22;20000;-72
2023/04/18 00:22:54;;;;;;;16.58;12.05;;;9.60;95.10;;;;;;6240657;23;20107;-72
2023/04/18 00:25:20;;;;;;;15.03;9.60;;;9.50;95.10;;;;;;6241044;22;20107;-72
2023/04/18 00:27:46;;;;;;;13.02;10.27;;;9.50;95.00;;;;;;6243628;23;20114;-72
2023/04/18 00:30:11;;;;;;;13.63;11.53;;;9.50;95.00;;;;;;6243384;23;19996;-72
2023/04/18 00:32:37;;;;;;;13.53;11.27;;;9.40;94.90;;;;;;6243770;22;20441;-72
2023/04/18 00:35:03;;;;;;;11.30;9.93;;;9.40;94.70;;;;;;6243924;23;20004;-72
2023/04/18 00:37:29;;;;;;;12.63;9.70;;;9.40;94.70;;;;;;6243595;22;19996;-72
2023/04/18 00:39:54;;;;;;;13.13;10.07;;;9.30;94.70;;;;;;6241662;23;20007;-72
2023/04/18 00:42:20;;;;;;;11.47;9.77;;;9.30;94.70;;;;;;6243352;23;20000;-72
2023/04/18 00:44:47;;;;;;;14.90;11.00;;;9.20;94.60;;;;;;6242053;23;20571;-72
2023/04/18 00:47:15;;;;;;;16.13;11.20;;;9.20;94.70;;;;;;6243275;22;20430;-72
2023/04/18 00:49:42;;;;;;;14.90;10.70;;;9.20;94.60;;;;;;6243535;22;20188;-72
2023/04/18 00:52:10;;;;;;;15.68;10.43;;;9.10;94.50;;;;;;6243735;22;19996;-72
2023/04/18 00:54:37;;;;;;;12.40;10.63;;;9.10;94.50;;;;;;6242882;22;20373;-72
2023/04/18 00:57:02;;;;;;;12.27;10.10;;;9.00;94.50;;;;;;6243719;22;20014;-72
2023/04/18 00:59:28;;;;;;;11.53;9.37;;;9.00;94.50;;;;;;6243133;23;20028;-72
2023/04/18 01:01:54;;;;;;;14.27;10.93;;;9.00;94.50;;;;;;6243836;22;19996;-72
2023/04/18 01:04:19;;;;;;;16.10;10.70;;;8.90;94.50;;;;;;6242999;23;20004;-72
2023/04/18 01:06:45;;;;;;;13.48;11.02;;;8.90;94.50;;;;;;6242093;23;20050;-72
2023/04/18 01:09:12;;;;;;;12.63;9.97;;;8.90;94.40;;;;;;6242817;22;20004;-72
2023/04/18 01:11:40;;;;;;;13.00;9.60;;;8.90;94.40;;;;;;6243778;22;20307;-72
2023/04/18 01:14:07;;;;;;;14.60;10.27;;;8.90;94.40;;;;;;6243532;22;20061;-72
2023/04/18 01:16:33;;;;;;;17.53;11.37;;;8.80;94.30;;;;;;6241584;23;20004;-72
2023/04/18 01:19:00;;;;;;;10.50;9.00;;;8.80;94.30;;;;;;6243741;22;20150;-72
2023/04/18 01:21:30;;;;;;;11.63;9.63;;;8.70;94.40;;;;;;6242188;23;20642;-72
2023/04/18 01:24:01;;;;;;;11.97;10.60;;;8.70;94.30;;;;;;6242938;22;20000;-72
2023/04/18 01:26:28;;;;;;;14.97;10.90;;;8.70;94.30;;;;;;6242551;22;20008;-72
2023/04/18 01:28:53;;;;;;;14.37;10.63;;;8.60;94.20;;;;;;6243593;22;20000;-72
2023/04/18 01:31:20;;;;;;;11.57;10.23;;;8.60;94.10;;;;;;6242676;22;20020;-72
2023/04/18 01:33:45;;;;;;;13.33;10.47;;;8.50;94.10;;;;;;6243373;22;19997;-72
2023/04/18 01:36:11;;;;;;;13.47;10.80;;;8.50;94.20;;;;;;6243205;23;19996;-73
2023/04/18 01:38:36;;;;;;;13.85;11.10;;;8.50;94.20;;;;;;6241076;23;20008;-72
2023/04/18 01:41:02;;;;;;;14.77;11.33;;;8.50;94.20;;;;;;6243320;23;20046;-72
2023/04/18 01:43:28;;;;;;;14.63;10.97;;;8.40;94.50;;;;;;6242545;23;20050;-71
2023/04/18 01:45:53;;;;;;;12.93;10.20;;;8.40;94.30;;;;;;6241775;23;20004;-72
2023/04/18 01:48:19;;;;;;;12.13;10.83;;;8.30;94.30;;;;;;6242673;23;20003;-72
2023/04/18 01:50:44;;;;;;;15.73;10.63;;;8.30;94.50;;;;;;6241646;23;19996;-73
2023/04/18 01:53:10;;;;;;;10.67;9.57;;;8.30;94.50;;;;;;6240954;23;20493;-72
2023/04/18 01:55:36;;;;;;;15.70;11.10;;;8.20;94.60;;;;;;6242885;23;20120;-72
2023/04/18 01:58:01;;;;;;;14.70;10.97;;;8.20;94.60;;;;;;6243243;23;20075;-72
2023/04/18 02:00:27;;;;;;;12.30;9.97;;;8.20;94.70;;;;;;6242460;23;20043;-72
2023/04/18 02:02:52;;;;;;;12.27;10.27;;;8.10;94.70;;;;;;6243001;23;20449;-72
2023/04/18 02:05:18;;;;;;;14.43;11.97;;;8.10;94.80;;;;;;6242661;23;20441;-72
2023/04/18 02:07:44;;;;;;;17.40;10.83;;;8.10;94.80;;;;;;6242527;23;20330;-72
2023/04/18 02:10:10;;;;;;;13.63;10.73;;;8.10;94.90;;;;;;6243035;22;20000;-72
2023/04/18 02:12:35;;;;;;;11.70;9.97;;;8.00;94.90;;;;;;6242634;23;20008;-72
2023/04/18 02:15:01;;;;;;;14.23;11.23;;;8.00;94.90;;;;;;6243005;23;20448;-72
2023/04/18 02:17:27;;;;;;;15.37;10.33;;;8.00;94.90;;;;;;6242282;23;20008;-72
2023/04/18 02:19:53;;;;;;;17.10;11.07;;;8.00;94.90;;;;;;6243132;22;20008;-72
2023/04/18 02:22:19;;;;;;;16.83;10.33;;;8.00;95.00;;;;;;6241916;23;20429;-73
2023/04/18 02:24:44;;;;;;;15.77;10.67;;;7.90;95.00;;;;;;6241466;23;20003;-72
2023/04/18 02:27:10;;;;;;;15.13;10.63;;;7.90;95.00;;;;;;6241362;23;20004;-73
2023/04/18 02:29:36;;;;;;;15.87;11.00;;;7.90;95.00;;;;;;6240877;22;20071;-72
2023/04/18 02:32:02;;;;;;;11.50;9.77;;;7.90;95.10;;;;;;6241449;23;20430;-72
2023/04/18 02:34:27;;;;;;;12.30;10.27;;;7.80;95.10;;;;;;6240587;22;20414;-73
2023/04/18 02:36:53;;;;;;;13.30;10.93;;;7.80;95.20;;;;;;6242359;23;20008;-73
2023/04/18 02:39:19;;;;;;;13.53;10.80;;;7.80;95.20;;;;;;6242269;23;20032;-73
2023/04/18 02:41:44;;;;;;;14.53;10.97;;;7.80;95.30;;;;;;6240880;23;20007;-74
2023/04/18 02:44:10;;;;;;;16.60;10.53;;;7.70;95.30;;;;;;6242573;23;20004;-73
2023/04/18 02:46:36;;;;;;;13.27;9.93;;;7.70;95.30;;;;;;6242314;23;20004;-73
2023/04/18 02:49:01;;;;;;;14.73;10.83;;;7.70;95.40;;;;;;6242512;23;19996;-73
2023/04/18 02:51:27;;;;;;;14.13;10.60;;;7.70;95.40;;;;;;6241285;22;20466;-73
2023/04/18 02:53:53;;;;;;;12.40;10.30;;;7.70;95.50;;;;;;6242700;23;20039;-73
2023/04/18 02:56:20;;;;;;;14.13;11.20;;;7.60;95.60;;;;;;6242098;22;20383;-73
2023/04/18 02:58:46;;;;;;;14.53;10.63;;;7.60;95.70;;;;;;6242575;22;20027;-73
2023/04/18 03:01:12;;;;;;;14.20;10.60;;;7.60;95.80;;;;;;6240241;23;20414;-73
2023/04/18 03:03:37;;;;;;;14.77;11.40;;;7.60;95.80;;;;;;6242521;23;20007;-73
2023/04/18 03:06:03;;;;;;;11.47;9.73;;;7.60;96.00;;;;;;6241992;23;20418;-73
2023/04/18 03:08:29;;;;;;;13.43;12.00;;;7.50;95.90;;;;;;6242108;23;20377;-72
2023/04/18 03:10:54;;;;;;;20.97;11.57;;;7.50;96.00;;;;;;6242531;22;20353;-73
2023/04/18 03:13:20;;;;;;;11.80;9.70;;;7.50;96.10;;;;;;6241973;23;20057;-73
2023/04/18 03:15:45;;;;;;;12.80;10.33;;;7.50;96.10;;;;;;6242376;23;20004;-73
2023/04/18 03:18:11;;;;;;;14.33;11.07;;;7.50;96.20;;;;;;6242230;22;20004;-72
2023/04/18 03:20:37;;;;;;;13.93;10.67;;;7.40;96.30;;;;;;6241925;23;20127;-72
2023/04/18 03:23:02;;;;;;;14.33;11.30;;;7.40;96.30;;;;;;6242507;23;20008;-73
2023/04/18 03:25:28;;;;;;;15.93;11.67;;;7.40;96.40;;;;;;6241397;23;20003;-73
2023/04/18 03:27:53;;;;;;;12.03;10.40;;;7.40;96.40;;;;;;6243200;22;19996;-72
2023/04/18 03:30:19;;;;;;;14.77;10.97;;;7.30;96.40;;;;;;6240149;23;20434;-72
2023/04/18 03:32:47;;;;;;;16.67;11.23;;;7.30;96.50;;;;;;6242200;22;20040;-73
2023/04/18 03:35:13;;;;;;;12.33;11.03;;;7.30;96.50;;;;;;6241476;22;20004;-73
2023/04/18 03:37:39;;;;;;;13.80;10.33;;;7.30;96.60;;;;;;6242651;22;20454;-72
2023/04/18 03:40:05;;;;;;;14.90;11.87;;;7.30;96.60;;;;;;6242348;23;20000;-73
2023/04/18 03:42:30;;;;;;;19.10;11.57;;;7.30;96.70;;;;;;6240170;23;20012;-73
2023/04/18 03:44:56;;;;;;;14.57;11.30;;;7.20;96.60;;;;;;6242364;23;20035;-73
2023/04/18 03:47:21;;;;;;;17.63;12.90;;;7.30;96.70;;;;;;6241800;23;20007;-73
2023/04/18 03:49:47;;;;;;;18.00;10.57;;;7.30;96.70;;;;;;6241850;23;20000;-73
2023/04/18 03:52:13;;;;;;;14.67;11.77;;;7.30;96.80;;;;;;6241807;23;20028;-73
2023/04/18 03:54:38;;;;;;;15.97;11.90;;;7.40;96.80;;;;;;6242314;22;20070;-73
2023/04/18 03:57:04;;;;;;;15.63;12.97;;;7.40;96.90;;;;;;6240715;23;20417;-72
2023/04/18 03:59:29;;;;;;;17.40;11.87;;;7.50;96.90;;;;;;6241776;23;20003;-73
2023/04/18 04:01:55;;;;;;;18.83;13.10;;;7.50;96.90;;;;;;6243423;22;20438;-73
2023/04/18 04:04:20;;;;;;;14.50;11.53;;;7.50;96.90;;;;;;6242998;23;20015;-73
2023/04/18 04:06:46;;;;;;;15.27;11.57;;;7.60;97.00;;;;;;6244402;23;20071;-73
2023/04/18 04:09:12;;;;;;;13.03;11.07;;;7.60;97.00;;;;;;6243671;23;20004;-73
2023/04/18 04:11:38;;;;;;;12.57;11.13;;;7.60;97.00;;;;;;6244226;22;20008;-73
2023/04/18 04:14:04;;;;;;;14.23;11.73;;;7.60;97.00;;;;;;6244022;22;20000;-72
2023/04/18 04:16:29;;;;;;;17.43;12.53;;;7.60;97.10;;;;;;6243707;23;20054;-72
2023/04/18 04:18:55;;;;;;;12.83;10.70;;;7.70;97.10;;;;;;6243209;23;20050;-72
2023/04/18 04:21:20;;;;;;;14.17;11.60;;;7.70;97.10;;;;;;6243767;23;20007;-72
2023/04/18 04:23:46;;;;;;;14.10;12.30;;;7.70;97.20;;;;;;6242245;23;20004;-73
2023/04/18 04:26:13;;;;;;;15.97;12.17;;;7.70;97.20;;;;;;6241972;23;20007;-72
2023/04/18 04:28:41;;;;;;;16.43;11.03;;;7.80;97.20;;;;;;6244012;22;20000;-72
2023/04/18 04:31:08;;;;;;;13.90;11.23;;;7.80;97.20;;;;;;6243672;22;20004;-72
2023/04/18 04:33:37;;;;;;;15.33;11.63;;;7.90;97.20;;;;;;6242973;22;20004;-72
2023/04/18 04:36:06;;;;;;;12.33;10.97;;;7.90;97.20;;;;;;6244128;22;20014;-72
2023/04/18 04:38:32;;;;;;;16.30;10.83;;;7.90;97.60;;;;;;6243376;22;20434;-72
2023/04/18 04:40:57;;;;;;;13.33;11.33;;;7.90;97.40;;;;;;6242341;23;20007;-72
2023/04/18 04:43:24;;;;;;;15.13;11.50;;;7.90;97.50;;;;;;6243020;23;20007;-72
2023/04/18 04:45:52;;;;;;;14.97;10.90;;;7.90;97.60;;;;;;6243296;22;20023;-72
2023/04/18 04:48:19;;;;;;;13.93;11.23;;;8.00;97.70;;;;;;6243199;23;20051;-72
2023/04/18 04:50:52;;;;;;;14.47;11.17;;;8.00;97.70;;;;;;6243743;22;20415;-73
2023/04/18 04:53:18;;;;;;;14.25;11.80;;;8.10;97.90;;;;;;6243317;22;20015;-73
2023/04/18 04:55:44;;;;;;;13.00;10.87;;;8.10;97.90;;;;;;6243659;23;20379;-73
2023/04/18 04:58:09;;;;;;;12.40;10.90;;;8.10;97.80;;;;;;6243721;22;20008;-73
2023/04/18 05:00:35;;;;;;;12.03;9.80;;;8.10;97.80;;;;;;6240898;23;20075;-73
2023/04/18 05:03:01;;;;;;;16.07;12.07;;;8.20;97.90;;;;;;6243707;23;20012;-73
2023/04/18 05:05:26;;;;;;;13.43;11.53;;;8.20;97.90;;;;;;6241534;23;20000;-72
2023/04/18 05:07:52;;;;;;;13.67;11.30;;;8.20;97.90;;;;;;6243861;22;20031;-73
2023/04/18 05:10:18;;;;;;;15.33;11.87;;;8.10;97.90;;;;;;6243159;22;20326;-73
2023/04/18 05:12:43;;;;;;;14.83;11.80;;;8.10;97.90;;;;;;6243398;23;20023;-72
2023/04/18 05:15:09;;;;;;;13.40;12.00;;;8.20;98.00;;;;;;6242926;23;20019;-73
2023/04/18 05:17:35;;;;;;;12.83;11.40;;;8.10;98.00;;;;;;6243092;22;20019;-73
2023/04/18 05:20:00;;;;;;;12.77;11.40;;;8.10;98.10;;;;;;6243526;23;20027;-73
2023/04/18 05:22:26;;;;;;;14.83;12.13;;;8.00;98.20;;;;;;6242768;23;20503;-72
2023/04/18 05:24:51;;;;;;;13.57;11.53;;;8.10;98.40;;;;;;6243451;23;19996;-73
2023/04/18 05:27:17;;;;;;;15.33;11.80;;;8.10;98.50;;;;;;6242761;23;20414;-73
2023/04/18 05:29:43;;;;;;;14.17;11.40;;;8.10;98.60;;;;;;6242270;23;20436;-72
2023/04/18 05:32:08;;;;;;;14.77;12.63;;;8.10;98.70;;;;;;6243128;23;20016;-72
2023/04/18 05:34:36;;;;;;;14.13;12.43;;;8.20;98.80;;;;;;6242749;23;20004;-72
2023/04/18 05:37:01;;;;;;;16.50;12.40;;;8.20;98.90;;;;;;6243589;22;20010;-72
2023/04/18 05:39:27;;;;;;;13.77;11.77;;;8.20;99.00;;;;;;6241976;23;20079;-73
2023/04/18 05:41:52;;;;;;;13.63;10.83;;;8.30;99.10;;;;;;6241925;23;20087;-73
2023/04/18 05:44:18;;;;;;;12.70;11.00;;;8.30;99.30;;;;;;6242062;23;20004;-73
2023/04/18 05:46:44;;;;;;;15.57;12.60;;;8.40;99.00;;;;;;6243347;22;20001;-73
2023/04/18 05:49:10;;;;;;;14.53;11.33;;;8.50;99.00;;;;;;6243251;22;20448;-72
2023/04/18 05:51:36;;;;;;;17.70;12.33;;;8.50;99.00;;;;;;6243122;22;20022;-72
2023/04/18 05:54:01;;;;;;;17.57;13.10;;;8.60;99.00;;;;;;6243316;23;20079;-73
2023/04/18 05:56:27;;;;;;;15.30;11.47;;;8.60;99.10;;;;;;6242867;23;20031;-72
2023/04/18 05:58:52;;;;;;;13.13;11.37;;;8.70;99.10;;;;;;6242622;23;20030;-73
2023/04/18 06:01:18;;;;;;;13.43;11.30;;;8.80;99.10;;;;;;6242465;23;20007;-72
2023/04/18 06:03:43;;;;;;;16.77;12.43;;;8.80;99.00;;;;;;6243090;23;20004;-81
2023/04/18 06:06:10;;;;;;;14.37;12.00;;;8.90;99.00;;;;;;6243454;23;20007;-82
2023/04/18 06:08:37;;;;;;;15.70;13.13;;;9.00;99.00;;;;;;6242888;22;20003;-82
2023/04/18 06:11:03;;;;;;;12.93;10.93;;;9.00;99.00;;;;;;6243504;22;20007;-81
2023/04/18 06:13:29;;;;;;;11.90;10.63;;;9.10;98.90;;;;;;6242339;23;20135;-82
2023/04/18 06:15:54;;;;;;;14.20;11.20;;;9.10;98.90;;;;;;6241804;23;20009;-82
2023/04/18 06:18:20;;;;;;;14.70;11.70;;;9.20;98.90;;;;;;6242756;23;20004;-82
2023/04/18 06:20:46;;;;;;;14.20;11.23;;;9.20;98.90;;;;;;6241269;23;20000;-81
2023/04/18 06:23:11;;;;;;;13.90;11.05;;;9.30;98.80;;;;;;6240889;23;20004;-82
2023/04/18 06:25:40;;;;;;;13.97;12.33;;;9.30;98.90;;;;;;6242719;23;20012;-82
2023/04/18 06:28:05;;;;;;;14.43;12.43;;;9.30;98.80;;;;;;6242442;22;19996;-82
2023/04/18 06:30:31;;;;;;;14.20;10.50;;;9.40;98.80;;;;;;6242028;23;20065;-82
2023/04/18 06:32:57;;;;;;;14.57;10.93;;;9.40;98.90;;;;;;6241365;23;20023;-83
2023/04/18 06:35:22;;;;;;;15.83;11.03;;;9.50;98.80;;;;;;6241594;23;20494;-82
2023/04/18 06:37:48;;;;;;;16.90;12.43;;;9.50;98.80;;;;;;6241924;23;20418;-82
2023/04/18 06:40:13;;;;;;;13.60;11.90;;;9.50;98.60;;;;;;6242410;23;20000;-83
2023/04/18 06:42:40;;;;;;;13.43;11.20;;;9.60;98.80;;;;;;6240557;23;20445;-83
2023/04/18 06:45:06;;;;;;;17.07;10.87;;;9.60;98.80;;;;;;6242781;22;20331;-82
2023/04/18 06:47:32;;;;;;;13.70;10.43;;;9.70;98.70;;;;;;6242255;22;20000;-83
2023/04/18 06:49:57;;;;;;;11.73;10.53;;;9.70;98.80;;;;;;6242794;23;20004;-82
2023/04/18 06:52:23;;;;;;;13.23;10.00;;;9.80;98.70;;;;;;6240612;23;20003;-82
2023/04/18 06:54:48;;;;;;;12.00;10.48;;;9.80;98.50;;;;;;6242578;23;20027;-83
2023/04/18 06:57:14;;;;;;;13.07;10.25;;;9.80;98.60;;;;;;6241510;23;20046;-82
2023/04/18 06:59:42;;;;;;;14.60;9.98;;;9.80;98.70;;;;;;6242620;22;19997;-82
2023/04/18 07:02:08;;;;;;;11.37;9.43;;;9.90;98.50;;;;;;6242506;23;20003;-82
2023/04/18 07:04:33;;;;;;;12.30;10.20;;;9.90;98.50;;;;;;6241736;23;20008;-81
2023/04/18 07:07:00;;;;;;;11.43;9.80;;;9.90;98.50;;;;;;6242806;23;20418;-82
2023/04/18 07:09:26;;;;;;;10.25;9.25;;;9.90;98.50;;;;;;6239794;22;20000;-81
2023/04/18 07:11:52;;;;;;;12.50;9.40;;;9.80;98.50;;;;;;6239360;23;20160;-81
2023/04/18 07:14:22;;;;;;;9.80;8.63;;;9.80;98.60;;;;;;6239807;23;20426;-81
2023/04/18 07:16:48;;;;;;;9.55;8.60;;;9.80;98.70;;;;;;6241747;22;20008;-80
2023/04/18 07:19:14;;;;;;;8.93;8.02;;;9.90;98.90;;;;;;6241675;23;20000;-81
2023/04/18 07:21:41;;;;;;;12.90;9.02;;;10.00;98.90;;;;;;6240686;23;20000;-81
2023/04/18 07:24:07;;;;;;;8.95;7.97;;;10.00;98.80;;;;;;6240388;23;20095;-81
2023/04/18 07:26:32;;;;;;;11.07;8.38;;;10.10;98.70;;;;;;6240918;23;20020;-81
2023/04/18 07:28:58;;;;;;;11.05;9.57;;;10.10;98.70;;;;;;6242301;23;20363;-81
2023/04/18 07:31:27;;;;;;;9.57;8.27;;;10.20;98.60;;;;;;6240393;23;20331;-81
2023/04/18 07:33:53;;;;;;;9.77;8.77;;;10.20;98.60;;;;;;6241565;22;20569;-81
2023/04/18 07:36:19;;;;;;;10.00;8.65;;;10.30;98.40;;;;;;6242643;22;20023;-80
2023/04/18 07:38:45;;;;;;;9.57;7.63;;;10.40;98.70;;;;;;6244189;23;20414;-81
2023/04/18 07:41:10;;;;;;;9.63;8.63;;;10.50;98.30;;;;;;6243204;22;20000;-80
2023/04/18 07:43:37;;;;;;;10.65;8.50;;;10.50;98.00;;;;;;6242418;23;20341;-80
2023/04/18 07:46:06;;;;;;;10.93;8.95;;;10.40;97.90;;;;;;6242415;23;20004;-80
2023/04/18 07:48:31;;;;;;;10.27;8.35;;;10.50;98.20;;;;;;6243748;22;20012;-80
2023/04/18 07:50:57;;;;;;;8.57;7.45;;;10.50;98.10;;;;;;6242314;23;20098;-81
2023/04/18 07:53:22;;;;;;;9.80;8.27;;;10.60;97.90;;;;;;6243089;22;20004;-81
2023/04/18 07:55:49;;;;;;;10.30;9.07;;;10.60;97.80;;;;;;6242308;23;20007;-80
2023/04/18 07:58:14;;;;;;;9.50;7.75;;;10.60;97.60;;;;;;6244253;23;20009;-80
2023/04/18 08:00:41;;;;;;;11.25;7.88;;;10.60;97.80;;;;;;6250116;23;20014;-80
2023/04/18 08:03:09;;;;;;;11.20;8.05;;;10.60;97.90;;;;;;6250199;23;20012;-82
2023/04/18 08:05:35;;;;;;;10.90;8.32;;;10.70;97.70;;;;;;6244754;22;20066;-82
2023/04/18 08:08:01;;;;;;;9.88;8.75;;;10.70;97.70;;;;;;6244163;22;20000;-81
2023/04/18 08:10:26;;;;;;;10.50;7.43;;;10.70;97.80;;;;;;6245498;23;20006;-82
2023/04/18 08:12:52;;;;;;;9.10;7.55;;;10.80;97.90;;;;;;6251929;23;20035;-82
2023/04/18 08:15:17;;;;;;;9.93;7.22;;;10.90;97.70;;;;;;6254007;23;20038;-82
2023/04/18 08:17:44;;;;;;;8.57;7.68;;;11.00;97.50;;;;;;6241997;23;20010;-82
2023/04/18 08:20:11;;;;;;;8.52;7.72;;;11.10;97.60;;;;;;6244184;22;20005;-82
2023/04/18 08:22:37;;;;;;;9.20;8.30;;;11.20;97.70;;;;;;6243825;22;20047;-81
2023/04/18 08:25:03;;;;;;;10.00;8.85;;;11.30;97.50;;;;;;6242027;23;20323;-82
2023/04/18 08:27:29;;;;;;;10.70;9.00;;;11.40;97.10;;;;;;6241837;22;20031;-81
2023/04/18 08:29:55;;;;;;;9.85;8.73;;;11.40;96.90;;;;;;6243381;22;20083;-82
2023/04/18 08:32:21;;;;;;;8.90;7.32;;;11.50;97.00;;;;;;6241544;23;20020;-81
2023/04/18 08:34:46;;;;;;;7.93;7.15;;;11.50;97.00;;;;;;6243060;23;20034;-81
2023/04/18 08:37:13;;;;;;;9.38;8.38;;;11.60;97.00;;;;;;6242718;22;19997;-82
2023/04/18 08:39:38;;;;;;;10.27;8.70;;;11.70;96.70;;;;;;6240075;23;20000;-81
2023/04/18 08:42:05;;;;;;;9.13;8.23;;;11.70;96.40;;;;;;6242014;23;19998;-81
2023/04/18 08:44:31;;;;;;;9.18;7.15;;;11.70;96.80;;;;;;6242640;22;20387;-82
2023/04/18 08:46:58;;;;;;;10.30;7.63;;;11.80;96.70;;;;;;6243098;22;20015;-83
2023/04/18 08:49:24;;;;;;;9.70;8.00;;;11.80;96.50;;;;;;6240235;22;20393;-82
2023/04/18 08:51:51;;;;;;;10.75;9.27;;;11.90;96.20;;;;;;6243362;22;20027;-82
2023/04/18 08:54:19;;;;;;;8.43;7.05;;;11.80;96.20;;;;;;6240691;23;20012;-83
2023/04/18 08:56:45;;;;;;;7.93;7.10;;;11.90;96.50;;;;;;6241812;23;20008;-83
2023/04/18 08:59:11;;;;;;;6.78;5.97;;;11.90;96.40;;;;;;6241048;23;20004;-83
2023/04/18 09:01:55;;;;;;;9.77;7.55;;;12.00;96.50;;;;;;6241185;23;20011;-83
2023/04/18 09:04:36;;;;;;;12.02;7.13;;;12.10;96.30;;;;;;6241234;23;20094;-84
2023/04/18 09:07:08;;;;;;;9.38;8.30;;;12.00;96.20;;;;;;6241788;23;20012;-84
2023/04/18 09:09:41;;;;;;;9.50;7.25;;;12.00;96.30;;;;;;6243728;22;20079;-84
2023/04/18 09:12:08;;;;;;;8.82;7.43;;;11.90;96.30;;;;;;6240991;23;20088;-82
2023/04/18 09:14:41;;;;;;;9.82;8.32;;;11.80;96.60;;;;;;6241842;23;20004;-83
2023/04/18 09:17:09;;;;;;;7.00;6.30;;;11.80;96.90;;;;;;6241907;23;20437;-83
2023/04/18 09:19:35;;;;;;;8.82;6.65;;;11.90;96.80;;;;;;6242937;22;20115;-83
2023/04/18 09:22:03;;;;;;;8.48;6.85;;;12.00;96.80;;;;;;6239477;23;20035;-83
2023/04/18 09:24:29;;;;;;;7.07;6.38;;;12.10;96.50;;;;;;6241403;23;20008;-83
2023/04/18 09:26:57;;;;;;;6.53;5.90;;;12.20;96.30;;;;;;6243394;22;19996;-82
2023/04/18 09:29:44;;;;;;;7.28;6.20;;;12.30;96.40;;;;;;6242268;22;20000;-82
2023/04/18 09:32:18;;;;;;;8.23;7.35;;;12.50;96.40;;;;;;6241006;23;20028;-83
2023/04/18 09:34:43;;;;;;;8.27;7.07;;;12.50;96.10;;;;;;6241957;22;20015;-82
2023/04/18 09:37:11;;;;;;;7.75;7.05;;;12.60;95.80;;;;;;6242773;23;20004;-83
2023/04/18 09:39:42;;;;;;;7.30;6.35;;;12.60;95.90;;;;;;6241465;23;20086;-83
2023/04/18 09:42:09;;;;;;;7.78;7.00;;;12.60;95.80;;;;;;6243066;22;20418;-83
2023/04/18 09:44:35;;;;;;;7.32;6.47;;;12.60;95.80;;;;;;6239353;23;20438;-83
2023/04/18 09:47:01;;;;;;;6.95;6.25;;;12.70;95.60;;;;;;6243133;22;20007;-83
2023/04/18 09:49:27;;;;;;;6.18;5.57;;;12.60;95.30;;;;;;6240157;23;20004;-82
2023/04/18 09:51:54;;;;;;;7.45;6.70;;;12.50;95.50;;;;;;6240655;23;19996;-82
2023/04/18 09:54:23;;;;;;;7.40;6.65;;;12.50;95.70;;;;;;6243408;22;20062;-82
2023/04/18 09:56:52;;;;;;;7.85;6.85;;;12.40;95.70;;;;;;6242424;22;20007;-81
2023/04/18 09:59:41;;;;;;;9.43;6.93;;;12.40;95.70;;;;;;6240857;23;20110;-82
2023/04/18 10:02:14;;;;;;;8.93;6.63;;;12.40;95.90;;;;;;6224070;23;20087;-84
2023/04/18 10:04:40;;;;;;;6.97;6.28;;;12.50;96.00;;;;;;6241299;23;20015;-85
2023/04/18 10:07:06;;;;;;;8.35;6.07;;;12.70;96.10;;;;;;6239562;23;20000;-83
2023/04/18 10:09:33;;;;;;;7.60;6.22;;;12.80;95.60;;;;;;6242464;22;20334;-82
2023/04/18 10:12:01;;;;;;;7.85;6.53;;;13.00;95.40;;;;;;6241116;23;20000;-82
2023/04/18 10:14:27;;;;;;;8.85;7.63;;;13.10;95.30;;;;;;6242521;22;20004;-82
2023/04/18 10:16:54;;;;;;;6.70;5.90;;;13.20;95.20;;;;;;6241409;22;19996;-82
2023/04/18 10:19:24;;;;;;;7.13;6.00;;;13.40;94.70;;;;;;6252221;22;20007;-82
2023/04/18 10:21:54;;;;;;;8.35;5.95;;;13.60;94.50;;;;;;6249471;22;20000;-82
2023/04/18 10:24:49;;;;;;;6.80;5.90;;;13.70;94.20;;;;;;6241208;23;20341;-82
2023/04/18 10:27:16;;;;;;;6.70;6.00;;;13.70;93.80;;;;;;6248332;22;20084;-82
2023/04/18 10:29:52;;;;;;;7.47;6.70;;;13.60;93.30;;;;;;6250861;23;20422;-82
2023/04/18 10:32:22;;;;;;;6.78;6.10;;;13.40;93.80;;;;;;6244982;23;20016;-82
2023/04/18 10:34:52;;;;;;;8.88;7.00;;;13.50;94.00;;;;;;6241200;23;20430;-82
2023/04/18 10:37:18;;;;;;;8.43;6.18;;;13.50;93.20;;;;;;6240872;23;20007;-82
2023/04/18 10:39:53;;;;;;;7.32;6.57;;;13.40;93.40;;;;;;6241172;22;20000;-81
2023/04/18 10:42:18;;;;;;;9.70;6.88;;;13.50;93.40;;;;;;6240721;23;20083;-80
2023/04/18 10:45:35;;;;;;;8.30;6.55;;;13.50;93.80;;;;;;6240932;23;20062;-82
2023/04/18 10:48:29;;;;;;;7.70;6.88;;;13.70;93.70;;;;;;6240295;22;20039;-82
2023/04/18 10:51:14;;;;;;;8.48;7.28;;;13.70;93.40;;;;;;6240424;22;20004;-82
2023/04/18 10:53:53;;;;;;;8.63;7.47;;;13.80;93.30;;;;;;6239859;23;20007;-82
2023/04/18 10:56:19;;;;;;;8.35;7.45;;;13.80;93.70;;;;;;6239150;23;20418;-80
2023/04/18 10:58:52;;;;;;;8.30;7.47;;;13.80;93.10;;;;;;6240075;23;20011;-81
2023/04/18 11:01:28;;;;;;;9.63;7.57;;;13.70;93.40;;;;;;6237867;23;20008;-82
2023/04/18 11:03:55;;;;;;;8.10;7.30;;;13.80;93.40;;;;;;6240367;23;20426;-82
2023/04/18 11:06:21;;;;;;;9.88;8.35;;;13.80;93.70;;;;;;6241837;22;20300;-83
2023/04/18 11:08:48;;;;;;;9.48;8.48;;;13.90;93.30;;;;;;6242454;22;20004;-83
2023/04/18 11:11:14;;;;;;;10.13;8.38;;;13.90;93.10;;;;;;6238673;23;20484;-82
2023/04/18 11:13:55;;;;;;;9.25;8.25;;;13.90;93.20;;;;;;6240843;23;20004;-83
2023/04/18 11:16:31;;;;;;;10.75;8.52;;;13.90;92.90;;;;;;6240456;23;20004;-83
2023/04/18 11:18:56;;;;;;;10.18;8.75;;;13.80;92.90;;;;;;6240323;23;20103;-83
2023/04/18 11:21:27;;;;;;;10.18;8.75;;;13.50;93.20;;;;;;6239097;23;20050;-82
2023/04/18 11:23:56;;;;;;;9.77;8.73;;;13.50;93.60;;;;;;6239253;22;20034;-83
2023/04/18 11:26:25;;;;;;;9.32;8.27;;;13.50;93.70;;;;;;6239872;23;20000;-82
2023/04/18 11:28:55;;;;;;;11.70;10.50;;;13.50;94.00;;;;;;6240782;23;20010;-83
2023/04/18 11:31:23;;;;;;;10.57;9.48;;;13.50;93.80;;;;;;6239235;23;20369;-82
2023/04/18 11:33:49;;;;;;;9.60;8.50;;;13.50;93.80;;;;;;6239684;22;20079;-83
2023/04/18 11:36:14;;;;;;;9.75;8.75;;;13.60;93.80;;;;;;6239190;23;20369;-83
2023/04/18 11:38:40;;;;;;;10.63;9.55;;;13.60;94.10;;;;;;6239376;23;20069;-83
2023/04/18 11:41:13;;;;;;;10.85;9.75;;;13.60;93.80;;;;;;6241871;22;20004;-83
2023/04/18 11:43:42;;;;;;;9.95;8.95;;;13.70;93.80;;;;;;6242625;22;20097;-82
2023/04/18 11:46:07;;;;;;;13.85;8.80;;;13.60;93.60;;;;;;6241866;22;20000;-81
2023/04/18 11:48:37;;;;;;;10.90;9.82;;;13.50;93.90;;;;;;6240775;23;20000;-83
2023/04/18 11:51:05;;;;;;;11.05;9.70;;;13.40;94.10;;;;;;6242029;22;20004;-82
2023/04/18 11:53:34;;;;;;;10.85;9.75;;;13.50;94.30;;;;;;6241394;22;20012;-83
2023/04/18 11:56:02;;;;;;;12.55;11.35;;;13.60;94.30;;;;;;6240534;22;20004;-82
2023/04/18 11:58:35;;;;;;;11.25;10.13;;;13.60;94.20;;;;;;6241344;22;20083;-83
2023/04/18 12:01:24;;;;;;;12.80;10.68;;;13.60;94.20;;;;;;6240078;22;20007;-83
2023/04/18 12:04:03;;;;;;;10.82;9.73;;;13.70;94.30;;;;;;6242066;22;20000;-83
2023/04/18 12:06:46;;;;;;;11.20;10.10;;;13.80;94.20;;;;;;6238992;23;20030;-83
2023/04/18 12:09:15;;;;;;;11.68;10.48;;;13.70;94.10;;;;;;6241239;22;20446;-82
2023/04/18 12:11:41;;;;;;;12.60;10.77;;;13.70;94.30;;;;;;6240282;23;20355;-82
2023/04/18 12:14:20;;;;;;;12.57;11.27;;;13.60;94.40;;;;;;6241496;23;20434;-82
2023/04/18 12:16:48;;;;;;;11.20;10.07;;;13.80;94.50;;;;;;6241046;22;20440;-82
2023/04/18 12:19:14;;;;;;;11.63;10.45;;;13.90;94.40;;;;;;6238135;23;20008;-83
2023/04/18 12:21:59;;;;;;;13.63;12.23;;;14.00;94.40;;;;;;6241953;23;20040;-83
2023/04/18 12:24:25;;;;;;;10.93;9.88;;;14.00;94.10;;;;;;6243026;22;20004;-82
2023/04/18 12:26:51;;;;;;;13.00;11.70;;;14.10;94.20;;;;;;6243847;22;20442;-82
2023/04/18 12:29:17;;;;;;;13.30;11.93;;;14.20;94.40;;;;;;6241473;22;20043;-83
2023/04/18 12:31:42;;;;;;;14.50;13.00;;;14.30;94.20;;;;;;6245956;22;20079;-83
2023/04/18 12:34:08;;;;;;;13.20;11.98;;;14.40;93.90;;;;;;6246011;23;20032;-82
2023/04/18 12:36:34;;;;;;;12.48;11.27;;;14.50;94.00;;;;;;6244788;23;20014;-82
2023/04/18 12:38:59;;;;;;;13.60;11.57;;;14.70;93.90;;;;;;6244866;23;20000;-83
2023/04/18 12:41:25;;;;;;;13.57;12.27;;;14.90;93.70;;;;;;6242806;22;20000;-82